sensor_id;sensor_type;location;lat;lon;timestamp;P1;durP1;ratioP1;P2;durP2;ratioP2
58896;SDS011;44677;52.378;10.400;2023-03-20T00:02:00;13.70;;;9.70;;
58896;SDS011;44677;52.378;10.400;2023-03-20T00:04:26;13.30;;;9.50;;
58896;SDS011;44677;52.378;10.400;2023-03-20T00:06:51;13.40;;;9.40;;
58896;SDS011;44677;52.378;10.400;2023-03-20T00:09:17;11.70;;;9.10;;
58896;SDS011;44677;52.378;10.400;2023-03-20T00:11:46;11.10;;;8.60;;
58896;SDS011;44677;52.378;10.400;2023-03-20T00:14:14;11.50;;;8.80;;
58896;SDS011;44677;52.378;10.400;2023-03-20T00:16:42;12.50;;;8.80;;
58896;SDS011;44677;52.378;10.400;2023-03-20T00:19:27;11.50;;;8.60;;
58896;SDS011;44677;52.378;10.400;2023-03-20T00:21:55;15.10;;;10.50;;
58896;SDS011;44677;52.378;10.400;2023-03-20T00:24:21;12.70;;;9.40;;
58896;SDS011;44677;52.378;10.400;2023-03-20T00:26:48;11.80;;;9.30;;
58896;SDS011;44677;52.378;10.400;2023-03-20T00:29:24;11.70;;;9.20;;
58896;SDS011;44677;52.378;10.400;2023-03-20T00:31:52;12.10;;;9.00;;
58896;SDS011;44677;52.378;10.400;2023-03-20T00:34:18;12.30;;;9.90;;
58896;SDS011;44677;52.378;10.400;2023-03-20T00:36:45;12.00;;;9.80;;
58896;SDS011;44677;52.378;10.400;2023-03-20T00:39:11;13.80;;;10.00;;
58896;SDS011;44677;52.378;10.400;2023-03-20T00:44:17;12.60;;;10.30;;
58896;SDS011;44677;52.378;10.400;2023-03-20T00:46:46;15.30;;;10.70;;
58896;SDS011;44677;52.378;10.400;2023-03-20T00:49:15;16.40;;;11.30;;
58896;SDS011;44677;52.378;10.400;2023-03-20T00:51:40;15.60;;;11.40;;
58896;SDS011;44677;52.378;10.400;2023-03-20T00:54:13;15.90;;;11.80;;
58896;SDS011;44677;52.378;10.400;2023-03-20T00:59:35;17.40;;;12.00;;
58896;SDS011;44677;52.378;10.400;2023-03-20T01:02:03;15.90;;;11.10;;
58896;SDS011;44677;52.378;10.400;2023-03-20T01:04:38;16.70;;;11.40;;
58896;SDS011;44677;52.378;10.400;2023-03-20T01:07:05;17.40;;;11.20;;
58896;SDS011;44677;52.378;10.400;2023-03-20T01:09:34;16.30;;;11.50;;
58896;SDS011;44677;52.378;10.400;2023-03-20T01:12:00;16.10;;;11.90;;
58896;SDS011;44677;52.378;10.400;2023-03-20T01:14:26;18.70;;;12.60;;
58896;SDS011;44677;52.378;10.400;2023-03-20T01:16:52;21.60;;;13.80;;
58896;SDS011;44677;52.378;10.400;2023-03-20T01:19:17;22.30;;;14.20;;
58896;SDS011;44677;52.378;10.400;2023-03-20T01:21:43;19.60;;;14.20;;
58896;SDS011;44677;52.378;10.400;2023-03-20T01:24:08;21.00;;;14.80;;
58896;SDS011;44677;52.378;10.400;2023-03-20T01:26:34;21.20;;;15.50;;
58896;SDS011;44677;52.378;10.400;2023-03-20T01:29:01;25.40;;;15.90;;
58896;SDS011;44677;52.378;10.400;2023-03-20T01:31:28;24.40;;;17.50;;
58896;SDS011;44677;52.378;10.400;2023-03-20T01:33:53;24.60;;;17.80;;
58896;SDS011;44677;52.378;10.400;2023-03-20T01:36:20;24.90;;;17.80;;
58896;SDS011;44677;52.378;10.400;2023-03-20T01:38:52;28.70;;;18.50;;
58896;SDS011;44677;52.378;10.400;2023-03-20T01:41:19;28.20;;;19.00;;
58896;SDS011;44677;52.378;10.400;2023-03-20T01:43:47;26.70;;;18.20;;
58896;SDS011;44677;52.378;10.400;2023-03-20T01:46:15;25.70;;;17.70;;
58896;SDS011;44677;52.378;10.400;2023-03-20T01:51:15;33.30;;;19.40;;
58896;SDS011;44677;52.378;10.400;2023-03-20T01:53:41;31.60;;;20.40;;
58896;SDS011;44677;52.378;10.400;2023-03-20T01:56:07;35.90;;;20.20;;
58896;SDS011;44677;52.378;10.400;2023-03-20T01:58:39;36.80;;;19.40;;
58896;SDS011;44677;52.378;10.400;2023-03-20T02:01:07;35.70;;;20.70;;
58896;SDS011;44677;52.378;10.400;2023-03-20T02:03:34;35.60;;;19.90;;
58896;SDS011;44677;52.378;10.400;2023-03-20T02:06:13;37.60;;;20.90;;
58896;SDS011;44677;52.378;10.400;2023-03-20T02:09:03;38.70;;;21.40;;
58896;SDS011;44677;52.378;10.400;2023-03-20T02:11:32;38.60;;;21.70;;
58896;SDS011;44677;52.378;10.400;2023-03-20T02:13:58;43.40;;;21.30;;
58896;SDS011;44677;52.378;10.400;2023-03-20T02:16:27;41.70;;;22.10;;
58896;SDS011;44677;52.378;10.400;2023-03-20T02:19:07;40.50;;;21.70;;
58896;SDS011;44677;52.378;10.400;2023-03-20T02:29:49;37.70;;;20.20;;
58896;SDS011;44677;52.378;10.400;2023-03-20T02:32:34;33.90;;;17.90;;
58896;SDS011;44677;52.378;10.400;2023-03-20T02:43:44;37.00;;;20.40;;
58896;SDS011;44677;52.378;10.400;2023-03-20T02:46:27;35.50;;;19.60;;
58896;SDS011;44677;52.378;10.400;2023-03-20T03:00:29;39.40;;;21.90;;
58896;SDS011;44677;52.378;10.400;2023-03-20T03:05:30;46.00;;;22.70;;
58896;SDS011;44677;52.378;10.400;2023-03-20T03:08:00;41.80;;;22.40;;
58896;SDS011;44677;52.378;10.400;2023-03-20T03:10:33;45.80;;;22.20;;
58896;SDS011;44677;52.378;10.400;2023-03-20T03:13:01;45.00;;;23.40;;
58896;SDS011;44677;52.378;10.400;2023-03-20T03:22:59;46.20;;;21.30;;
58896;SDS011;44677;52.378;10.400;2023-03-20T03:25:27;48.00;;;23.20;;
58896;SDS011;44677;52.378;10.400;2023-03-20T03:28:06;44.50;;;23.60;;
58896;SDS011;44677;52.378;10.400;2023-03-20T03:30:34;41.20;;;21.20;;
58896;SDS011;44677;52.378;10.400;2023-03-20T03:33:08;44.80;;;21.30;;
58896;SDS011;44677;52.378;10.400;2023-03-20T03:35:44;40.70;;;21.20;;
58896;SDS011;44677;52.378;10.400;2023-03-20T03:43:50;39.30;;;19.10;;
58896;SDS011;44677;52.378;10.400;2023-03-20T03:46:33;35.70;;;18.00;;
58896;SDS011;44677;52.378;10.400;2023-03-20T03:49:05;32.10;;;17.70;;
58896;SDS011;44677;52.378;10.400;2023-03-20T03:54:02;33.60;;;16.80;;
58896;SDS011;44677;52.378;10.400;2023-03-20T03:56:32;29.80;;;15.80;;
58896;SDS011;44677;52.378;10.400;2023-03-20T04:01:25;31.50;;;15.70;;
58896;SDS011;44677;52.378;10.400;2023-03-20T04:03:52;30.70;;;15.90;;
58896;SDS011;44677;52.378;10.400;2023-03-20T04:06:21;28.40;;;14.50;;
58896;SDS011;44677;52.378;10.400;2023-03-20T04:08:49;28.90;;;14.90;;
58896;SDS011;44677;52.378;10.400;2023-03-20T04:11:15;29.50;;;15.00;;
58896;SDS011;44677;52.378;10.400;2023-03-20T04:13:47;25.70;;;14.00;;
58896;SDS011;44677;52.378;10.400;2023-03-20T04:16:14;27.40;;;14.30;;
58896;SDS011;44677;52.378;10.400;2023-03-20T04:18:42;29.40;;;15.60;;
58896;SDS011;44677;52.378;10.400;2023-03-20T04:21:10;28.10;;;14.00;;
58896;SDS011;44677;52.378;10.400;2023-03-20T04:23:35;27.20;;;14.50;;
58896;SDS011;44677;52.378;10.400;2023-03-20T04:26:01;24.10;;;13.90;;
58896;SDS011;44677;52.378;10.400;2023-03-20T04:28:28;26.20;;;13.80;;
58896;SDS011;44677;52.378;10.400;2023-03-20T04:31:01;26.30;;;14.00;;
58896;SDS011;44677;52.378;10.400;2023-03-20T04:33:49;29.90;;;14.90;;
58896;SDS011;44677;52.378;10.400;2023-03-20T04:36:39;27.10;;;14.70;;
58896;SDS011;44677;52.378;10.400;2023-03-20T04:39:06;29.10;;;14.60;;
58896;SDS011;44677;52.378;10.400;2023-03-20T04:41:32;25.30;;;13.80;;
58896;SDS011;44677;52.378;10.400;2023-03-20T04:43:57;27.60;;;13.90;;
58896;SDS011;44677;52.378;10.400;2023-03-20T04:46:23;24.30;;;12.50;;
58896;SDS011;44677;52.378;10.400;2023-03-20T04:48:49;25.20;;;12.50;;
58896;SDS011;44677;52.378;10.400;2023-03-20T04:51:14;24.70;;;12.70;;
58896;SDS011;44677;52.378;10.400;2023-03-20T04:53:48;26.30;;;13.30;;
58896;SDS011;44677;52.378;10.400;2023-03-20T04:56:13;25.70;;;13.10;;
58896;SDS011;44677;52.378;10.400;2023-03-20T04:58:39;22.90;;;12.20;;
58896;SDS011;44677;52.378;10.400;2023-03-20T05:01:05;26.10;;;12.10;;
58896;SDS011;44677;52.378;10.400;2023-03-20T05:03:30;24.50;;;13.00;;
58896;SDS011;44677;52.378;10.400;2023-03-20T05:05:56;21.80;;;12.50;;
58896;SDS011;44677;52.378;10.400;2023-03-20T05:08:21;23.40;;;12.00;;
58896;SDS011;44677;52.378;10.400;2023-03-20T05:10:48;26.10;;;13.10;;
58896;SDS011;44677;52.378;10.400;2023-03-20T05:13:36;25.00;;;12.10;;
58896;SDS011;44677;52.378;10.400;2023-03-20T05:16:28;25.00;;;12.20;;
58896;SDS011;44677;52.378;10.400;2023-03-20T05:19:03;25.50;;;13.00;;
58896;SDS011;44677;52.378;10.400;2023-03-20T05:21:49;23.80;;;12.90;;
58896;SDS011;44677;52.378;10.400;2023-03-20T05:24:35;24.10;;;12.80;;
58896;SDS011;44677;52.378;10.400;2023-03-20T05:27:06;27.00;;;14.10;;
58896;SDS011;44677;52.378;10.400;2023-03-20T05:29:45;25.30;;;13.60;;
58896;SDS011;44677;52.378;10.400;2023-03-20T05:32:34;26.50;;;14.50;;
58896;SDS011;44677;52.378;10.400;2023-03-20T05:38:14;24.10;;;13.20;;
58896;SDS011;44677;52.378;10.400;2023-03-20T05:40:49;29.00;;;14.30;;
58896;SDS011;44677;52.378;10.400;2023-03-20T05:43:20;32.40;;;16.60;;
58896;SDS011;44677;52.378;10.400;2023-03-20T05:45:51;28.70;;;15.00;;
58896;SDS011;44677;52.378;10.400;2023-03-20T05:48:36;33.90;;;17.00;;
58896;SDS011;44677;52.378;10.400;2023-03-20T05:51:22;34.80;;;17.30;;
58896;SDS011;44677;52.378;10.400;2023-03-20T05:53:55;31.80;;;16.20;;
58896;SDS011;44677;52.378;10.400;2023-03-20T05:56:39;34.20;;;15.90;;
58896;SDS011;44677;52.378;10.400;2023-03-20T05:59:24;35.10;;;16.30;;
58896;SDS011;44677;52.378;10.400;2023-03-20T06:02:16;30.00;;;16.20;;
58896;SDS011;44677;52.378;10.400;2023-03-20T06:04:46;31.90;;;16.50;;
58896;SDS011;44677;52.378;10.400;2023-03-20T06:07:32;33.00;;;17.50;;
58896;SDS011;44677;52.378;10.400;2023-03-20T06:10:04;35.70;;;16.20;;
58896;SDS011;44677;52.378;10.400;2023-03-20T06:12:30;32.60;;;16.10;;
58896;SDS011;44677;52.378;10.400;2023-03-20T06:14:56;28.50;;;14.80;;
58896;SDS011;44677;52.378;10.400;2023-03-20T06:17:22;30.80;;;15.50;;
58896;SDS011;44677;52.378;10.400;2023-03-20T06:19:51;33.90;;;15.60;;
58896;SDS011;44677;52.378;10.400;2023-03-20T06:22:16;31.60;;;16.20;;
58896;SDS011;44677;52.378;10.400;2023-03-20T06:24:42;34.20;;;16.00;;
58896;SDS011;44677;52.378;10.400;2023-03-20T06:27:11;31.20;;;16.20;;
58896;SDS011;44677;52.378;10.400;2023-03-20T06:29:36;32.10;;;15.60;;
58896;SDS011;44677;52.378;10.400;2023-03-20T06:32:11;29.90;;;15.90;;
58896;SDS011;44677;52.378;10.400;2023-03-20T06:34:39;30.10;;;15.30;;
58896;SDS011;44677;52.378;10.400;2023-03-20T06:37:06;29.30;;;15.80;;
58896;SDS011;44677;52.378;10.400;2023-03-20T06:39:31;31.80;;;15.00;;
58896;SDS011;44677;52.378;10.400;2023-03-20T06:41:57;26.90;;;15.40;;
58896;SDS011;44677;52.378;10.400;2023-03-20T06:44:23;28.70;;;16.00;;
58896;SDS011;44677;52.378;10.400;2023-03-20T06:47:09;29.30;;;16.00;;
58896;SDS011;44677;52.378;10.400;2023-03-20T06:49:35;31.00;;;15.10;;
58896;SDS011;44677;52.378;10.400;2023-03-20T06:52:00;29.40;;;15.80;;
58896;SDS011;44677;52.378;10.400;2023-03-20T06:54:29;30.70;;;16.30;;
58896;SDS011;44677;52.378;10.400;2023-03-20T06:56:55;28.50;;;15.40;;
58896;SDS011;44677;52.378;10.400;2023-03-20T06:59:21;30.80;;;15.60;;
58896;SDS011;44677;52.378;10.400;2023-03-20T07:01:46;33.00;;;16.20;;
58896;SDS011;44677;52.378;10.400;2023-03-20T07:04:12;33.50;;;16.70;;
58896;SDS011;44677;52.378;10.400;2023-03-20T07:06:43;29.70;;;15.40;;
58896;SDS011;44677;52.378;10.400;2023-03-20T07:11:55;30.30;;;15.30;;
58896;SDS011;44677;52.378;10.400;2023-03-20T07:14:58;32.30;;;16.40;;
58896;SDS011;44677;52.378;10.400;2023-03-20T07:18:35;31.40;;;16.70;;
58896;SDS011;44677;52.378;10.400;2023-03-20T07:21:03;32.20;;;15.90;;
58896;SDS011;44677;52.378;10.400;2023-03-20T07:23:32;35.30;;;17.00;;
58896;SDS011;44677;52.378;10.400;2023-03-20T07:26:17;29.00;;;15.10;;
58896;SDS011;44677;52.378;10.400;2023-03-20T07:28:43;31.90;;;17.60;;
58896;SDS011;44677;52.378;10.400;2023-03-20T07:31:23;30.00;;;15.60;;
58896;SDS011;44677;52.378;10.400;2023-03-20T07:33:56;33.20;;;16.60;;
58896;SDS011;44677;52.378;10.400;2023-03-20T07:36:21;32.20;;;17.30;;
58896;SDS011;44677;52.378;10.400;2023-03-20T07:38:47;38.30;;;18.70;;
58896;SDS011;44677;52.378;10.400;2023-03-20T07:41:13;31.50;;;17.40;;
58896;SDS011;44677;52.378;10.400;2023-03-20T07:43:41;30.70;;;17.10;;
58896;SDS011;44677;52.378;10.400;2023-03-20T07:46:19;35.90;;;17.50;;
58896;SDS011;44677;52.378;10.400;2023-03-20T07:48:44;32.90;;;17.30;;
58896;SDS011;44677;52.378;10.400;2023-03-20T07:51:10;35.30;;;16.90;;
58896;SDS011;44677;52.378;10.400;2023-03-20T07:53:35;31.90;;;17.20;;
58896;SDS011;44677;52.378;10.400;2023-03-20T07:58:29;32.40;;;16.50;;
58896;SDS011;44677;52.378;10.400;2023-03-20T08:00:58;35.10;;;18.90;;
58896;SDS011;44677;52.378;10.400;2023-03-20T08:03:23;36.30;;;18.20;;
58896;SDS011;44677;52.378;10.400;2023-03-20T08:05:49;33.20;;;18.50;;
58896;SDS011;44677;52.378;10.400;2023-03-20T08:08:14;33.80;;;18.30;;
58896;SDS011;44677;52.378;10.400;2023-03-20T08:10:39;38.80;;;18.10;;
58896;SDS011;44677;52.378;10.400;2023-03-20T08:13:05;37.70;;;19.40;;
58896;SDS011;44677;52.378;10.400;2023-03-20T08:15:30;41.10;;;20.30;;
58896;SDS011;44677;52.378;10.400;2023-03-20T08:17:56;40.20;;;20.60;;
58896;SDS011;44677;52.378;10.400;2023-03-20T08:20:22;37.40;;;19.40;;
58896;SDS011;44677;52.378;10.400;2023-03-20T08:22:48;33.80;;;19.10;;
58896;SDS011;44677;52.378;10.400;2023-03-20T08:25:14;34.20;;;18.00;;
58896;SDS011;44677;52.378;10.400;2023-03-20T08:27:40;34.10;;;18.60;;
58896;SDS011;44677;52.378;10.400;2023-03-20T08:30:05;33.10;;;18.70;;
58896;SDS011;44677;52.378;10.400;2023-03-20T08:32:33;31.20;;;17.50;;
58896;SDS011;44677;52.378;10.400;2023-03-20T08:34:58;33.70;;;16.80;;
58896;SDS011;44677;52.378;10.400;2023-03-20T08:37:24;31.90;;;18.30;;
58896;SDS011;44677;52.378;10.400;2023-03-20T08:39:49;32.10;;;17.60;;
58896;SDS011;44677;52.378;10.400;2023-03-20T08:42:14;29.50;;;17.10;;
58896;SDS011;44677;52.378;10.400;2023-03-20T08:44:40;28.60;;;16.50;;
58896;SDS011;44677;52.378;10.400;2023-03-20T08:47:05;29.90;;;16.60;;
58896;SDS011;44677;52.378;10.400;2023-03-20T08:49:32;29.50;;;15.70;;
58896;SDS011;44677;52.378;10.400;2023-03-20T08:51:58;29.20;;;15.20;;
58896;SDS011;44677;52.378;10.400;2023-03-20T08:54:24;27.30;;;14.00;;
58896;SDS011;44677;52.378;10.400;2023-03-20T08:56:50;26.00;;;14.10;;
58896;SDS011;44677;52.378;10.400;2023-03-20T08:59:16;23.50;;;14.00;;
58896;SDS011;44677;52.378;10.400;2023-03-20T09:01:41;21.50;;;13.00;;
58896;SDS011;44677;52.378;10.400;2023-03-20T09:04:07;16.80;;;10.40;;
58896;SDS011;44677;52.378;10.400;2023-03-20T09:06:35;21.80;;;13.10;;
58896;SDS011;44677;52.378;10.400;2023-03-20T09:09:01;21.80;;;13.50;;
58896;SDS011;44677;52.378;10.400;2023-03-20T09:11:27;21.10;;;12.60;;
58896;SDS011;44677;52.378;10.400;2023-03-20T09:13:52;24.90;;;14.10;;
58896;SDS011;44677;52.378;10.400;2023-03-20T09:16:17;24.20;;;13.70;;
58896;SDS011;44677;52.378;10.400;2023-03-20T09:18:43;22.40;;;13.80;;
58896;SDS011;44677;52.378;10.400;2023-03-20T09:21:09;21.40;;;12.50;;
58896;SDS011;44677;52.378;10.400;2023-03-20T09:23:35;20.70;;;12.40;;
58896;SDS011;44677;52.378;10.400;2023-03-20T09:26:00;19.60;;;12.40;;
58896;SDS011;44677;52.378;10.400;2023-03-20T09:28:25;19.90;;;11.20;;
58896;SDS011;44677;52.378;10.400;2023-03-20T09:30:57;18.40;;;11.80;;
58896;SDS011;44677;52.378;10.400;2023-03-20T09:33:23;18.90;;;11.20;;
58896;SDS011;44677;52.378;10.400;2023-03-20T09:35:49;19.60;;;11.90;;
58896;SDS011;44677;52.378;10.400;2023-03-20T09:38:14;19.90;;;11.90;;
58896;SDS011;44677;52.378;10.400;2023-03-20T09:40:53;16.90;;;11.30;;
58896;SDS011;44677;52.378;10.400;2023-03-20T09:43:25;17.70;;;11.10;;
58896;SDS011;44677;52.378;10.400;2023-03-20T09:51:46;17.80;;;11.10;;
58896;SDS011;44677;52.378;10.400;2023-03-20T09:54:25;18.90;;;11.00;;
58896;SDS011;44677;52.378;10.400;2023-03-20T09:56:52;16.70;;;11.10;;
58896;SDS011;44677;52.378;10.400;2023-03-20T09:59:20;14.90;;;10.40;;
58896;SDS011;44677;52.378;10.400;2023-03-20T10:04:15;15.40;;;9.90;;
58896;SDS011;44677;52.378;10.400;2023-03-20T10:06:40;15.40;;;10.70;;
58896;SDS011;44677;52.378;10.400;2023-03-20T10:09:11;14.90;;;9.70;;
58896;SDS011;44677;52.378;10.400;2023-03-20T10:19:38;16.90;;;10.90;;
58896;SDS011;44677;52.378;10.400;2023-03-20T10:22:15;15.00;;;11.00;;
58896;SDS011;44677;52.378;10.400;2023-03-20T10:24:51;16.30;;;11.20;;
58896;SDS011;44677;52.378;10.400;2023-03-20T10:27:21;17.90;;;11.10;;
58896;SDS011;44677;52.378;10.400;2023-03-20T10:30:03;17.80;;;11.20;;
58896;SDS011;44677;52.378;10.400;2023-03-20T10:40:57;20.20;;;11.70;;
58896;SDS011;44677;52.378;10.400;2023-03-20T10:43:30;16.30;;;11.20;;
58896;SDS011;44677;52.378;10.400;2023-03-20T10:46:01;16.80;;;11.70;;
58896;SDS011;44677;52.378;10.400;2023-03-20T10:51:15;17.20;;;11.50;;
58896;SDS011;44677;52.378;10.400;2023-03-20T10:53:50;16.80;;;11.60;;
58896;SDS011;44677;52.378;10.400;2023-03-20T10:56:20;17.40;;;11.90;;
58896;SDS011;44677;52.378;10.400;2023-03-20T10:58:53;21.50;;;12.70;;
58896;SDS011;44677;52.378;10.400;2023-03-20T11:01:23;18.70;;;12.70;;
58896;SDS011;44677;52.378;10.400;2023-03-20T11:03:48;21.00;;;13.00;;
58896;SDS011;44677;52.378;10.400;2023-03-20T11:06:17;18.20;;;12.30;;
58896;SDS011;44677;52.378;10.400;2023-03-20T11:08:49;18.10;;;12.30;;
58896;SDS011;44677;52.378;10.400;2023-03-20T11:11:26;18.70;;;12.90;;
58896;SDS011;44677;52.378;10.400;2023-03-20T11:13:53;18.30;;;12.20;;
58896;SDS011;44677;52.378;10.400;2023-03-20T11:16:22;17.50;;;12.10;;
58896;SDS011;44677;52.378;10.400;2023-03-20T11:18:50;15.50;;;11.00;;
58896;SDS011;44677;52.378;10.400;2023-03-20T11:23:50;18.90;;;11.80;;
58896;SDS011;44677;52.378;10.400;2023-03-20T11:26:16;16.40;;;11.00;;
58896;SDS011;44677;52.378;10.400;2023-03-20T11:28:49;13.80;;;10.50;;
58896;SDS011;44677;52.378;10.400;2023-03-20T11:31:29;14.10;;;10.50;;
58896;SDS011;44677;52.378;10.400;2023-03-20T11:34:44;14.50;;;10.70;;
58896;SDS011;44677;52.378;10.400;2023-03-20T11:39:24;16.50;;;10.40;;
58896;SDS011;44677;52.378;10.400;2023-03-20T11:41:57;16.70;;;11.60;;
58896;SDS011;44677;52.378;10.400;2023-03-20T11:46:59;15.00;;;11.40;;
58896;SDS011;44677;52.378;10.400;2023-03-20T11:49:27;17.10;;;11.20;;
58896;SDS011;44677;52.378;10.400;2023-03-20T11:54:36;16.10;;;11.80;;
58896;SDS011;44677;52.378;10.400;2023-03-20T11:57:01;18.20;;;11.90;;
58896;SDS011;44677;52.378;10.400;2023-03-20T11:59:31;15.60;;;10.50;;
58896;SDS011;44677;52.378;10.400;2023-03-20T12:01:58;16.50;;;11.20;;
58896;SDS011;44677;52.378;10.400;2023-03-20T12:04:33;14.50;;;10.90;;
58896;SDS011;44677;52.378;10.400;2023-03-20T12:07:10;14.50;;;9.80;;
58896;SDS011;44677;52.378;10.400;2023-03-20T12:23:51;11.10;;;8.40;;
58896;SDS011;44677;52.378;10.400;2023-03-20T12:26:26;13.00;;;8.50;;
58896;SDS011;44677;52.378;10.400;2023-03-20T12:28:59;11.20;;;8.60;;
58896;SDS011;44677;52.378;10.400;2023-03-20T12:36:56;11.00;;;8.20;;
58896;SDS011;44677;52.378;10.400;2023-03-20T12:39:22;10.50;;;8.40;;
58896;SDS011;44677;52.378;10.400;2023-03-20T12:44:52;9.90;;;8.20;;
58896;SDS011;44677;52.378;10.400;2023-03-20T12:50:09;10.90;;;8.60;;
58896;SDS011;44677;52.378;10.400;2023-03-20T12:53:04;11.40;;;9.30;;
58896;SDS011;44677;52.378;10.400;2023-03-20T13:00:42;11.10;;;9.30;;
58896;SDS011;44677;52.378;10.400;2023-03-20T13:06:01;12.80;;;8.50;;
58896;SDS011;44677;52.378;10.400;2023-03-20T13:16:11;7.80;;;7.10;;
58896;SDS011;44677;52.378;10.400;2023-03-20T13:19:15;11.50;;;6.70;;
58896;SDS011;44677;52.378;10.400;2023-03-20T13:24:25;8.00;;;7.10;;
58896;SDS011;44677;52.378;10.400;2023-03-20T13:29:33;9.70;;;7.10;;
58896;SDS011;44677;52.378;10.400;2023-03-20T13:32:20;7.30;;;6.60;;
58896;SDS011;44677;52.378;10.400;2023-03-20T13:37:38;10.70;;;7.50;;
58896;SDS011;44677;52.378;10.400;2023-03-20T13:40:25;8.80;;;8.00;;
58896;SDS011;44677;52.378;10.400;2023-03-20T13:42:53;10.60;;;7.80;;
58896;SDS011;44677;52.378;10.400;2023-03-20T13:45:33;11.20;;;8.20;;
58896;SDS011;44677;52.378;10.400;2023-03-20T13:48:46;10.80;;;9.00;;
58896;SDS011;44677;52.378;10.400;2023-03-20T13:51:01;9.50;;;8.30;;
58896;SDS011;44677;52.378;10.400;2023-03-20T13:56:10;9.60;;;8.30;;
58896;SDS011;44677;52.378;10.400;2023-03-20T14:04:19;12.00;;;8.90;;
58896;SDS011;44677;52.378;10.400;2023-03-20T14:06:47;9.10;;;8.20;;
58896;SDS011;44677;52.378;10.400;2023-03-20T14:09:31;10.40;;;9.50;;
58896;SDS011;44677;52.378;10.400;2023-03-20T14:12:03;10.20;;;9.20;;
58896;SDS011;44677;52.378;10.400;2023-03-20T14:14:31;11.00;;;9.40;;
58896;SDS011;44677;52.378;10.400;2023-03-20T14:17:08;10.40;;;8.80;;
58896;SDS011;44677;52.378;10.400;2023-03-20T14:19:39;12.90;;;9.30;;
58896;SDS011;44677;52.378;10.400;2023-03-20T14:22:05;10.70;;;9.60;;
58896;SDS011;44677;52.378;10.400;2023-03-20T14:24:31;11.20;;;9.80;;
58896;SDS011;44677;52.378;10.400;2023-03-20T14:27:00;11.20;;;10.00;;
58896;SDS011;44677;52.378;10.400;2023-03-20T14:29:35;10.20;;;9.20;;
58896;SDS011;44677;52.378;10.400;2023-03-20T14:34:44;11.40;;;8.80;;
58896;SDS011;44677;52.378;10.400;2023-03-20T14:47:56;10.50;;;9.40;;
58896;SDS011;44677;52.378;10.400;2023-03-20T14:53:16;10.40;;;7.90;;
58896;SDS011;44677;52.378;10.400;2023-03-20T15:01:02;9.40;;;8.50;;
58896;SDS011;44677;52.378;10.400;2023-03-20T15:03:29;9.80;;;8.80;;
58896;SDS011;44677;52.378;10.400;2023-03-20T15:05:55;10.40;;;9.40;;
58896;SDS011;44677;52.378;10.400;2023-03-20T15:08:23;11.20;;;10.00;;
58896;SDS011;44677;52.378;10.400;2023-03-20T15:10:50;12.70;;;10.00;;
58896;SDS011;44677;52.378;10.400;2023-03-20T15:13:18;10.30;;;9.00;;
58896;SDS011;44677;52.378;10.400;2023-03-20T15:15:55;10.60;;;9.10;;
58896;SDS011;44677;52.378;10.400;2023-03-20T15:18:23;10.20;;;8.80;;
58896;SDS011;44677;52.378;10.400;2023-03-20T15:20:49;13.80;;;9.20;;
58896;SDS011;44677;52.378;10.400;2023-03-20T15:23:15;8.90;;;8.00;;
58896;SDS011;44677;52.378;10.400;2023-03-20T15:25:41;9.30;;;8.30;;
58896;SDS011;44677;52.378;10.400;2023-03-20T15:28:11;9.40;;;8.40;;
58896;SDS011;44677;52.378;10.400;2023-03-20T15:30:48;8.80;;;7.60;;
58896;SDS011;44677;52.378;10.400;2023-03-20T15:33:17;10.00;;;8.90;;
58896;SDS011;44677;52.378;10.400;2023-03-20T15:35:48;10.70;;;9.60;;
58896;SDS011;44677;52.378;10.400;2023-03-20T15:38:14;13.10;;;9.40;;
58896;SDS011;44677;52.378;10.400;2023-03-20T15:40:40;11.80;;;10.60;;
58896;SDS011;44677;52.378;10.400;2023-03-20T15:43:11;14.00;;;10.60;;
58896;SDS011;44677;52.378;10.400;2023-03-20T15:45:39;12.00;;;11.00;;
58896;SDS011;44677;52.378;10.400;2023-03-20T15:48:14;11.80;;;10.60;;
58896;SDS011;44677;52.378;10.400;2023-03-20T15:51:05;12.70;;;11.40;;
58896;SDS011;44677;52.378;10.400;2023-03-20T15:56:03;13.20;;;11.90;;
58896;SDS011;44677;52.378;10.400;2023-03-20T15:58:31;11.70;;;10.60;;
58896;SDS011;44677;52.378;10.400;2023-03-20T16:00:57;14.40;;;11.00;;
58896;SDS011;44677;52.378;10.400;2023-03-20T16:03:24;12.90;;;11.20;;
58896;SDS011;44677;52.378;10.400;2023-03-20T16:05:50;12.80;;;11.30;;
58896;SDS011;44677;52.378;10.400;2023-03-20T16:08:21;15.80;;;11.30;;
58896;SDS011;44677;52.378;10.400;2023-03-20T16:10:47;13.60;;;11.10;;
58896;SDS011;44677;52.378;10.400;2023-03-20T16:13:12;11.90;;;10.60;;
58896;SDS011;44677;52.378;10.400;2023-03-20T16:15:41;12.20;;;11.00;;
58896;SDS011;44677;52.378;10.400;2023-03-20T16:18:06;14.00;;;11.40;;
58896;SDS011;44677;52.378;10.400;2023-03-20T16:20:33;14.10;;;12.00;;
58896;SDS011;44677;52.378;10.400;2023-03-20T16:23:03;12.90;;;11.40;;
58896;SDS011;44677;52.378;10.400;2023-03-20T16:25:30;12.60;;;11.30;;
58896;SDS011;44677;52.378;10.400;2023-03-20T16:27:56;15.10;;;12.30;;
58896;SDS011;44677;52.378;10.400;2023-03-20T16:30:24;15.30;;;13.00;;
58896;SDS011;44677;52.378;10.400;2023-03-20T16:32:58;16.30;;;12.50;;
58896;SDS011;44677;52.378;10.400;2023-03-20T16:35:47;15.20;;;12.60;;
58896;SDS011;44677;52.378;10.400;2023-03-20T16:40:54;14.90;;;12.70;;
58896;SDS011;44677;52.378;10.400;2023-03-20T16:43:25;14.60;;;12.10;;
58896;SDS011;44677;52.378;10.400;2023-03-20T16:45:54;15.00;;;12.50;;
58896;SDS011;44677;52.378;10.400;2023-03-20T16:50:47;15.40;;;12.60;;
58896;SDS011;44677;52.378;10.400;2023-03-20T16:53:19;21.80;;;12.50;;
58896;SDS011;44677;52.378;10.400;2023-03-20T16:55:45;13.00;;;11.50;;
58896;SDS011;44677;52.378;10.400;2023-03-20T16:58:17;14.70;;;11.30;;
58896;SDS011;44677;52.378;10.400;2023-03-20T17:00:56;11.60;;;10.40;;
58896;SDS011;44677;52.378;10.400;2023-03-20T17:03:33;11.30;;;10.20;;
58896;SDS011;44677;52.378;10.400;2023-03-20T17:08:49;11.40;;;10.30;;
58896;SDS011;44677;52.378;10.400;2023-03-20T17:11:21;11.10;;;10.00;;
58896;SDS011;44677;52.378;10.400;2023-03-20T17:13:51;10.80;;;9.30;;
58896;SDS011;44677;52.378;10.400;2023-03-20T17:16:17;11.90;;;8.90;;
58896;SDS011;44677;52.378;10.400;2023-03-20T17:18:45;10.10;;;9.00;;
58896;SDS011;44677;52.378;10.400;2023-03-20T17:21:11;10.30;;;9.10;;
58896;SDS011;44677;52.378;10.400;2023-03-20T17:23:38;11.60;;;8.80;;
58896;SDS011;44677;52.378;10.400;2023-03-20T17:26:03;12.30;;;8.80;;
58896;SDS011;44677;52.378;10.400;2023-03-20T17:28:32;11.40;;;8.70;;
58896;SDS011;44677;52.378;10.400;2023-03-20T17:30:58;8.70;;;7.90;;
58896;SDS011;44677;52.378;10.400;2023-03-20T17:33:29;9.50;;;8.50;;
58896;SDS011;44677;52.378;10.400;2023-03-20T17:35:55;12.50;;;8.60;;
58896;SDS011;44677;52.378;10.400;2023-03-20T17:38:21;11.50;;;8.20;;
58896;SDS011;44677;52.378;10.400;2023-03-20T17:40:47;9.10;;;8.30;;
58896;SDS011;44677;52.378;10.400;2023-03-20T17:43:13;9.30;;;8.40;;
58896;SDS011;44677;52.378;10.400;2023-03-20T17:45:40;10.30;;;8.00;;